createdAt,value
2023-04-11T00:01:45.354Z,65973.06
2023-04-11T00:06:49.559Z,65995.47
2023-04-11T00:11:55.193Z,65914.59
2023-04-11T00:17:01.122Z,65804.66
2023-04-11T00:22:05.138Z,65647.63
2023-04-11T00:27:10.736Z,65715.97
2023-04-11T00:32:14.614Z,65715.31
2023-04-11T00:37:21.473Z,65820.56
2023-04-11T00:42:26.830Z,65854.44
2023-04-11T00:47:33.561Z,65861.84
2023-04-11T00:52:39.596Z,65844.66
2023-04-11T00:57:45.879Z,65843.03
2023-04-11T01:02:49.944Z,65877.59
2023-04-11T01:07:55.832Z,65875.00
2023-04-11T01:13:02.458Z,65916.81
2023-04-11T01:18:09.088Z,65823.16
2023-04-11T01:23:15.478Z,65869.84
2023-04-11T01:28:21.764Z,65887.50
2023-04-11T01:33:26.041Z,65787.97
2023-04-11T01:38:30.230Z,65675.38
2023-04-11T01:43:35.892Z,65690.31
2023-04-11T01:48:40.312Z,65754.31
2023-04-11T01:53:46.090Z,65719.16
2023-04-11T01:58:51.628Z,65827.00
2023-04-11T02:03:55.693Z,65838.31
2023-04-11T02:08:59.706Z,65762.25
2023-04-11T02:14:06.411Z,65638.91
2023-04-11T02:19:10.402Z,65761.97
2023-04-11T02:24:15.120Z,65835.03
2023-04-11T02:29:20.434Z,65883.69
2023-04-11T02:34:27.013Z,65927.59
2023-04-11T02:39:32.527Z,65951.13
2023-04-11T02:44:37.886Z,65968.81
2023-04-11T02:49:42.536Z,65950.53
2023-04-11T02:54:48.245Z,65985.41
2023-04-11T02:59:54.061Z,66009.03
2023-04-11T03:05:07.057Z,66017.41
2023-04-11T03:10:16.968Z,66072.13
2023-04-11T03:15:26.235Z,66044.81
2023-04-11T03:20:35.116Z,65993.25
2023-04-11T03:25:45.173Z,66144.88
2023-04-11T03:30:55.105Z,66072.66
2023-04-11T03:36:03.829Z,66014.19
2023-04-11T03:41:11.241Z,65967.13
2023-04-11T03:46:20.405Z,65994.66
2023-04-11T03:51:28.704Z,65981.56
2023-04-11T03:56:42.860Z,66112.28
2023-04-11T04:01:58.624Z,66133.09
2023-04-11T04:07:04.421Z,66080.34
2023-04-11T04:12:20.119Z,66128.81
2023-04-11T04:17:46.253Z,66163.19
2023-04-11T04:23:00.720Z,66114.34
2023-04-11T04:28:24.174Z,66019.72
2023-04-11T04:33:33.737Z,66036.69
2023-04-11T04:38:44.919Z,66126.13
2023-04-11T04:43:50.764Z,65962.81
2023-04-11T04:49:04.113Z,65991.28
2023-04-11T04:54:11.703Z,65998.31
2023-04-11T04:59:19.204Z,66022.94
2023-04-11T05:04:32.078Z,66047.41
2023-04-11T05:09:39.492Z,66024.56
2023-04-11T05:14:56.086Z,66013.66
2023-04-11T05:20:07.518Z,66133.09
2023-04-11T05:25:13.779Z,66156.66
2023-04-11T05:30:24.631Z,66185.63
2023-04-11T05:35:31.481Z,66211.34
2023-04-11T05:40:39.976Z,66191.41
2023-04-11T05:45:48.178Z,66224.91
2023-04-11T05:50:56.940Z,66233.41
2023-04-11T05:56:03.263Z,66258.53
2023-04-11T06:01:12.417Z,66253.72
2023-04-11T06:06:17.653Z,66248.34
2023-04-11T06:11:22.425Z,66204.00
2023-04-11T06:16:26.639Z,66178.72
2023-04-11T06:21:33.295Z,66041.13
2023-04-11T06:26:38.156Z,66142.75
2023-04-11T06:31:44.309Z,66232.88
2023-04-11T06:36:52.399Z,66105.31
2023-04-11T06:41:58.995Z,66165.25
2023-04-11T06:47:06.920Z,66214.00
2023-04-11T06:52:13.753Z,66246.38
2023-04-11T06:57:20.141Z,66262.38
2023-04-11T07:02:27.135Z,66288.56
2023-04-11T07:07:35.773Z,66317.97
2023-04-11T07:12:42.416Z,66360.63
2023-04-11T07:17:51.432Z,66413.69
2023-04-11T07:22:58.822Z,66362.22
2023-04-11T07:28:07.490Z,66404.56
2023-04-11T07:33:14.529Z,66407.97
2023-04-11T07:38:30.721Z,66398.28
2023-04-11T07:43:36.191Z,66441.44
2023-04-11T07:48:40.779Z,66354.09
2023-04-11T07:53:46.411Z,66403.41
2023-04-11T07:58:51.124Z,66303.66
2023-04-11T08:03:58.088Z,66313.25
2023-04-11T08:09:06.555Z,66427.03
2023-04-11T08:14:13.701Z,66460.31
2023-04-11T08:19:19.702Z,66533.84
2023-04-11T08:24:25.883Z,66447.44
2023-04-11T08:29:30.844Z,66407.88
2023-04-11T08:34:35.592Z,66393.75
2023-04-11T08:39:43.060Z,66418.00
2023-04-11T08:44:55.194Z,66408.31
2023-04-11T08:50:00.320Z,66442.06
2023-04-11T08:55:07.087Z,66466.41
2023-04-11T09:00:15.070Z,66456.72
2023-04-11T09:05:26.750Z,66393.91
2023-04-11T09:10:32.216Z,66474.91
2023-04-11T09:15:36.279Z,66513.59
2023-04-11T09:20:40.374Z,66393.34
2023-04-11T09:25:47.242Z,66321.84
2023-04-11T09:30:52.625Z,66307.34
2023-04-11T09:35:57.963Z,66351.41
2023-04-11T09:41:06.552Z,66347.03
2023-04-11T09:46:18.736Z,66372.44
2023-04-11T09:51:35.052Z,66363.84
2023-04-11T09:56:46.851Z,66359.03
2023-04-11T10:01:52.243Z,66260.22
2023-04-11T10:07:13.444Z,66254.25
2023-04-11T10:12:34.580Z,66288.56
2023-04-11T10:17:41.721Z,66289.66
2023-04-11T10:23:00.612Z,66339.63
2023-04-11T10:28:09.000Z,66301.53
2023-04-11T10:33:17.871Z,66268.81
2023-04-11T10:38:47.827Z,66284.38
2023-04-11T10:44:11.366Z,66371.34
2023-04-11T10:49:39.588Z,66457.91
2023-04-11T10:54:44.849Z,66414.84
2023-04-11T11:00:02.928Z,66469.09
2023-04-11T11:05:23.768Z,66380.47
2023-04-11T11:10:40.516Z,66383.09
2023-04-11T11:15:53.200Z,66483.13
2023-04-11T11:21:00.601Z,66549.13
2023-04-11T11:26:06.611Z,66658.22
2023-04-11T11:31:17.561Z,66705.47
2023-04-11T11:36:23.812Z,66843.34
2023-04-11T11:41:30.289Z,66999.06
2023-04-11T11:46:36.350Z,66955.97
2023-04-11T11:51:42.013Z,66955.97
2023-04-11T11:56:53.637Z,66947.41
2023-04-11T12:01:59.200Z,67136.09
2023-04-11T12:07:09.928Z,66984.53
2023-04-11T12:12:18.626Z,67258.16
2023-04-11T12:17:25.050Z,67195.53
2023-04-11T12:22:29.350Z,67291.06
2023-04-11T12:27:35.082Z,67332.59
2023-04-11T12:32:40.742Z,66965.19
2023-04-11T12:37:46.229Z,67153.38
2023-04-11T12:42:57.033Z,67170.72
2023-04-11T12:48:05.472Z,67265.09
2023-04-11T12:53:10.197Z,67075.19
2023-04-11T12:58:14.267Z,67066.44
2023-04-11T13:03:21.509Z,66917.13
2023-04-11T13:08:28.493Z,66842.81
2023-04-11T13:13:33.601Z,66770.03
2023-04-11T13:18:41.380Z,66753.28
2023-04-11T13:23:45.593Z,66813.28
2023-04-11T13:28:49.732Z,66818.53
2023-04-11T13:33:55.406Z,66855.13
2023-04-11T13:39:01.555Z,66899.91
2023-04-11T13:44:08.573Z,66939.19
2023-04-11T13:49:14.789Z,66993.16
2023-04-11T13:54:19.253Z,67064.88
2023-04-11T13:59:23.258Z,67185.81
2023-04-11T14:04:29.035Z,67179.28
2023-04-11T14:09:37.631Z,67177.72
2023-04-11T14:14:42.819Z,67244.09
2023-04-11T14:19:48.345Z,67054.03
2023-04-11T14:24:52.474Z,67056.31
2023-04-11T14:29:56.810Z,66984.59
2023-04-11T14:35:04.247Z,66938.25
2023-04-11T14:40:11.296Z,66890.22
2023-04-11T14:45:15.739Z,66859.59
2023-04-11T14:50:22.077Z,66911.28
2023-04-11T14:55:26.279Z,67045.38
2023-04-11T15:00:30.736Z,66857.38
2023-04-11T15:05:38.148Z,66919.31
2023-04-11T15:10:43.174Z,66961.91
2023-04-11T15:15:47.306Z,66873.50
2023-04-11T15:20:54.062Z,66829.34
2023-04-11T15:26:03.990Z,66874.53
2023-04-11T15:31:10.611Z,66858.38
2023-04-11T15:36:17.756Z,66853.59
2023-04-11T15:41:24.000Z,66897.28
2023-04-11T15:46:36.206Z,66860.53
2023-04-11T15:51:53.770Z,66884.22
2023-04-11T15:56:59.016Z,66837.91
2023-04-11T16:02:05.222Z,66870.81
2023-04-11T16:07:11.126Z,66764.22
2023-04-11T16:12:16.265Z,66769.56
2023-04-11T16:17:21.126Z,66857.81
2023-04-11T16:22:26.683Z,66896.81
2023-04-11T16:27:30.821Z,66785.75
2023-04-11T16:32:35.020Z,66756.50
2023-04-11T16:37:40.755Z,66713.56
2023-04-11T16:42:44.501Z,66678.66
2023-04-11T16:47:48.562Z,66679.72
2023-04-11T16:52:54.148Z,66663.03
2023-04-11T16:57:58.147Z,66648.00
2023-04-11T17:03:02.223Z,66611.94
2023-04-11T17:08:07.654Z,66581.84
2023-04-11T17:13:12.505Z,66534.47
2023-04-11T17:18:16.769Z,66480.13
2023-04-11T17:23:31.995Z,66500.69
2023-04-11T17:28:43.992Z,66480.91
2023-04-11T17:33:48.084Z,66497.47
2023-04-11T17:38:54.809Z,66491.66
2023-04-11T17:43:59.075Z,66461.19
2023-04-11T17:49:03.445Z,66442.06
2023-04-11T17:54:08.960Z,66469.09
2023-04-11T17:59:14.027Z,66499.09
2023-04-11T18:04:18.468Z,66446.38
2023-04-11T18:09:27.526Z,66488.34
2023-04-11T18:14:35.178Z,66488.72
2023-04-11T18:19:40.501Z,66415.84
2023-04-11T18:24:48.332Z,66374.94
2023-04-11T18:29:52.570Z,66410.19
2023-04-11T18:34:56.747Z,66491.47
2023-04-11T18:40:07.511Z,66486.19
2023-04-11T18:45:13.760Z,66506.44
2023-04-11T18:50:18.684Z,66486.66
2023-04-11T18:55:24.584Z,66522.72
2023-04-11T19:00:30.250Z,66396.50
2023-04-11T19:05:34.600Z,66396.34
2023-04-11T19:10:41.382Z,66408.22
2023-04-11T19:15:46.980Z,66457.78
2023-04-11T19:20:52.169Z,66488.78
2023-04-11T19:26:00.518Z,66424.91
2023-04-11T19:31:04.769Z,66288.13
2023-04-11T19:36:09.338Z,66293.94
2023-04-11T19:41:16.253Z,66366.97
2023-04-11T19:46:20.457Z,66244.59
2023-04-11T19:51:24.759Z,66280.16
2023-04-11T19:56:30.328Z,66311.25
2023-04-11T20:01:34.617Z,66278.47
2023-04-11T20:06:38.800Z,66218.84
2023-04-11T20:11:47.308Z,66273.72
2023-04-11T20:16:51.833Z,66373.97
2023-04-11T20:21:56.415Z,66389.53
2023-04-11T20:27:02.514Z,66408.69
2023-04-11T20:32:07.147Z,66293.94
2023-04-11T20:37:11.395Z,66054.44
2023-04-11T20:42:17.850Z,66053.84
2023-04-11T20:47:21.917Z,66144.34
2023-04-11T20:52:26.018Z,66209.28
2023-04-11T20:57:33.615Z,66120.88
2023-04-11T21:02:37.879Z,66169.59
2023-04-11T21:07:43.404Z,66098.91
2023-04-11T21:12:51.741Z,66101.59
2023-04-11T21:17:56.180Z,66029.81
2023-04-11T21:23:00.841Z,66053.47
2023-04-11T21:28:06.598Z,66059.81
2023-04-11T21:33:11.120Z,66097.28
2023-04-11T21:38:15.210Z,66076.50
2023-04-11T21:43:20.650Z,66059.81
2023-04-11T21:48:24.968Z,66125.41
2023-04-11T21:53:29.245Z,65992.97
2023-04-11T21:58:34.921Z,65974.59
2023-04-11T22:03:41.565Z,66026.50
2023-04-11T22:08:56.283Z,66074.91
2023-04-11T22:14:05.096Z,66052.84
2023-04-11T22:19:13.864Z,65991.28
2023-04-11T22:24:31.669Z,66067.13
2023-04-11T22:29:42.283Z,65969.41
2023-04-11T22:34:46.675Z,65979.94
2023-04-11T22:39:50.865Z,66024.97
2023-04-11T22:44:56.294Z,66013.56
2023-04-11T22:50:04.098Z,65960.31
2023-04-11T22:55:17.436Z,65939.81
2023-04-11T23:00:24.232Z,66055.09
2023-04-11T23:05:30.366Z,66054.91
2023-04-11T23:10:37.198Z,65977.28
2023-04-11T23:15:42.659Z,65961.13
2023-04-11T23:20:48.901Z,65939.19
2023-04-11T23:25:53.298Z,65941.63
2023-04-11T23:30:58.877Z,65936.50
2023-04-11T23:36:03.918Z,65901.41
2023-04-11T23:41:09.009Z,65899.16
2023-04-11T23:46:14.969Z,65917.97
2023-04-11T23:51:19.021Z,65925.56
2023-04-11T23:56:23.251Z,65927.00
